Time;durP1;ratioP1;P1;durP2;ratioP2;P2;SDS_P1;SDS_P2;PMS_P1;PMS_P2;Temp;Humidity;BMP_temperature;BMP_pressure;BME280_temperature;BME280_humidity;BME280_pressure;Samples;Min_cycle;Max_cycle;Signal;HPM_P1;HPM_P2
2023/11/01 00:01:02;;;;;;;6.25;1.23;;;11.10;99.90;;;;;;5011314;28;20110;-73
2023/11/01 00:03:28;;;;;;;13.02;2.47;;;11.20;99.90;;;;;;5027962;28;20040;-73
2023/11/01 00:05:54;;;;;;;7.82;1.60;;;11.20;99.90;;;;;;5010582;28;20438;-74
2023/11/01 00:08:19;;;;;;;7.07;2.22;;;11.20;99.90;;;;;;5011201;28;20028;-74
2023/11/01 00:10:45;;;;;;;4.82;1.67;;;11.20;99.90;;;;;;5012321;28;20112;-73
2023/11/01 00:13:10;;;;;;;11.93;1.58;;;11.10;99.90;;;;;;5010820;28;20033;-75
2023/11/01 00:15:36;;;;;;;6.78;1.55;;;11.20;99.90;;;;;;5010318;28;20125;-74
2023/11/01 00:18:01;;;;;;;8.20;1.90;;;11.20;99.90;;;;;;5028914;28;20013;-73
2023/11/01 00:20:27;;;;;;;4.97;1.40;;;11.20;99.90;;;;;;5010177;28;20087;-75
2023/11/01 00:22:52;;;;;;;10.07;1.80;;;11.20;99.90;;;;;;5033057;28;20095;-74
2023/11/01 00:25:18;;;;;;;6.85;1.55;;;11.20;99.90;;;;;;5029525;28;20025;-74
2023/11/01 00:27:43;;;;;;;4.82;1.73;;;11.20;99.90;;;;;;5030513;28;20112;-73
2023/11/01 00:30:09;;;;;;;11.57;1.52;;;11.20;99.90;;;;;;5030670;28;20445;-76
2023/11/01 00:32:35;;;;;;;8.35;2.00;;;11.30;99.90;;;;;;5040842;28;20032;-73
2023/11/01 00:35:01;;;;;;;6.72;2.03;;;11.30;99.90;;;;;;5049858;28;20115;-74
2023/11/01 00:37:26;;;;;;;16.30;2.28;;;11.20;99.90;;;;;;5067493;28;20367;-73
2023/11/01 00:39:52;;;;;;;7.70;2.03;;;11.30;99.90;;;;;;5063494;28;20029;-73
2023/11/01 00:42:18;;;;;;;11.48;2.13;;;11.20;99.90;;;;;;5027936;28;20790;-75
2023/11/01 00:44:43;;;;;;;5.57;1.73;;;11.20;99.90;;;;;;5010555;28;20037;-74
2023/11/01 00:47:09;;;;;;;6.85;2.03;;;11.20;99.90;;;;;;5025679;28;20036;-73
2023/11/01 00:49:34;;;;;;;9.90;2.40;;;11.20;99.90;;;;;;5029582;28;20039;-75
2023/11/01 00:52:00;;;;;;;9.25;2.38;;;11.20;99.90;;;;;;5026507;28;20044;-75
2023/11/01 00:54:26;;;;;;;4.72;2.20;;;11.20;99.90;;;;;;5020924;28;20538;-73
2023/11/01 00:56:51;;;;;;;10.30;2.40;;;11.20;99.90;;;;;;5030944;28;20032;-74
2023/11/01 00:59:17;;;;;;;7.05;2.33;;;11.20;99.90;;;;;;5021564;28;20033;-74
2023/11/01 01:01:42;;;;;;;14.02;2.85;;;11.20;99.90;;;;;;5018420;28;20055;-74
2023/11/01 01:04:08;;;;;;;12.40;2.83;;;11.20;99.90;;;;;;5047927;28;20025;-74
2023/11/01 01:06:33;;;;;;;10.68;3.22;;;11.10;99.90;;;;;;5016643;28;20038;-73
2023/11/01 01:08:59;;;;;;;12.98;3.17;;;11.10;99.90;;;;;;5016361;28;20029;-75
2023/11/01 01:11:24;;;;;;;8.07;2.35;;;11.10;99.90;;;;;;5027301;28;20837;-73
2023/11/01 01:13:50;;;;;;;6.25;2.47;;;11.10;99.90;;;;;;5010039;28;20026;-73
2023/11/01 01:16:16;;;;;;;10.40;2.80;;;11.10;99.90;;;;;;5013605;28;20043;-75
2023/11/01 01:18:42;;;;;;;12.48;3.28;;;11.10;99.90;;;;;;5051777;28;20394;-73
2023/11/01 01:21:08;;;;;;;8.60;3.33;;;11.10;99.90;;;;;;5052161;28;20032;-73
2023/11/01 01:23:33;;;;;;;11.45;3.80;;;11.10;99.90;;;;;;5056218;28;20033;-73
2023/11/01 01:25:59;;;;;;;12.30;2.78;;;11.10;99.90;;;;;;5053767;28;20040;-74
2023/11/01 01:28:24;;;;;;;25.52;3.80;;;11.20;99.90;;;;;;5071193;28;20048;-75
2023/11/01 01:30:50;;;;;;;10.07;2.83;;;11.20;99.90;;;;;;5054238;28;20033;-74
2023/11/01 01:33:15;;;;;;;20.05;3.00;;;11.10;99.90;;;;;;5054036;28;20125;-74
2023/11/01 01:35:41;;;;;;;19.20;3.70;;;11.10;99.90;;;;;;5025049;28;20044;-73
2023/11/01 01:38:06;;;;;;;11.63;3.15;;;11.10;99.90;;;;;;5045040;28;20034;-75
2023/11/01 01:40:34;;;;;;;8.65;2.95;;;11.10;99.90;;;;;;5046642;28;20033;-74
2023/11/01 01:43:09;;;;;;;13.43;2.97;;;11.10;99.90;;;;;;5043305;28;20029;-75
2023/11/01 01:45:35;;;;;;;11.45;3.03;;;11.10;99.90;;;;;;5030215;28;20041;-74
2023/11/01 01:48:01;;;;;;;10.35;3.50;;;11.10;99.90;;;;;;5039392;28;20036;-76
2023/11/01 01:50:26;;;;;;;6.97;2.90;;;11.10;99.90;;;;;;5035928;28;20030;-76
2023/11/01 01:52:52;;;;;;;11.07;3.10;;;11.10;99.90;;;;;;5018300;28;20077;-75
2023/11/01 01:55:18;;;;;;;7.22;2.72;;;11.10;99.90;;;;;;5012679;28;20065;-75
2023/11/01 01:57:44;;;;;;;9.45;2.72;;;11.10;99.90;;;;;;5013936;28;20041;-75
2023/11/01 02:00:11;;;;;;;11.18;2.95;;;11.10;99.90;;;;;;5031732;28;20482;-75
2023/11/01 02:02:37;;;;;;;10.20;3.45;;;11.10;99.90;;;;;;5030782;28;20215;-75
2023/11/01 02:05:06;;;;;;;10.07;2.83;;;11.20;99.90;;;;;;5013396;28;20792;-76
2023/11/01 02:07:32;;;;;;;9.65;2.60;;;11.20;99.90;;;;;;5030758;28;20353;-76
2023/11/01 02:09:57;;;;;;;7.65;2.60;;;11.20;99.90;;;;;;5013893;28;20075;-75
2023/11/01 02:12:24;;;;;;;8.55;2.42;;;11.20;99.90;;;;;;5026098;28;20040;-75
2023/11/01 02:14:50;;;;;;;13.20;2.58;;;11.10;99.90;;;;;;5051219;28;20037;-76
2023/11/01 02:17:15;;;;;;;15.15;2.83;;;11.20;99.90;;;;;;5032959;28;20086;-76
2023/11/01 02:19:41;;;;;;;13.00;3.03;;;11.10;99.90;;;;;;5020878;28;20033;-75
2023/11/01 02:22:06;;;;;;;10.55;2.40;;;11.10;99.90;;;;;;5017472;28;20720;-76
2023/11/01 02:24:32;;;;;;;9.32;2.20;;;11.10;99.90;;;;;;5029704;28;20121;-75
2023/11/01 02:26:57;;;;;;;10.30;2.47;;;11.10;99.90;;;;;;5031321;28;20152;-75
2023/11/01 02:29:24;;;;;;;15.50;2.83;;;11.10;99.90;;;;;;5030850;28;20037;-75
2023/11/01 02:31:50;;;;;;;11.93;2.40;;;11.10;99.90;;;;;;5055849;28;20068;-75
2023/11/01 02:34:16;;;;;;;6.68;2.30;;;11.10;99.90;;;;;;5070677;28;20040;-76
2023/11/01 02:36:41;;;;;;;5.18;1.90;;;11.10;99.90;;;;;;5053885;28;20036;-75
2023/11/01 02:39:07;;;;;;;7.20;2.17;;;11.10;99.90;;;;;;5057384;28;20025;-76
2023/11/01 02:41:33;;;;;;;10.68;2.67;;;11.10;99.90;;;;;;5073881;28;20032;-75
2023/11/01 02:43:58;;;;;;;10.00;2.65;;;11.10;99.90;;;;;;5070412;28;20028;-75
2023/11/01 02:46:24;;;;;;;6.55;1.83;;;11.10;99.90;;;;;;5069692;28;20020;-76
2023/11/01 02:48:49;;;;;;;5.05;1.88;;;11.20;99.90;;;;;;5057120;28;20037;-76
2023/11/01 02:51:15;;;;;;;9.23;2.05;;;11.20;99.90;;;;;;5045526;28;20037;-76
2023/11/01 02:53:40;;;;;;;5.82;1.98;;;11.10;99.90;;;;;;5029983;28;20479;-75
2023/11/01 02:56:06;;;;;;;13.07;2.05;;;11.20;99.90;;;;;;5012897;28;20823;-75
2023/11/01 02:58:33;;;;;;;10.32;1.50;;;11.20;99.90;;;;;;5011884;28;20561;-75
2023/11/01 03:00:59;;;;;;;8.13;1.45;;;11.10;99.90;;;;;;5024664;28;20048;-74
2023/11/01 03:03:28;;;;;;;8.07;1.65;;;11.20;99.90;;;;;;5031367;28;20068;-76
2023/11/01 03:05:54;;;;;;;7.22;1.92;;;11.20;99.90;;;;;;5044666;28;20064;-77
2023/11/01 03:08:19;;;;;;;5.75;1.50;;;11.20;99.90;;;;;;5041510;28;20018;-75
2023/11/01 03:10:45;;;;;;;7.78;1.52;;;11.20;99.90;;;;;;5042517;28;20483;-76
2023/11/01 03:13:10;;;;;;;12.00;2.50;;;11.20;99.90;;;;;;5033768;28;20465;-76
2023/11/01 03:15:37;;;;;;;10.95;1.70;;;11.20;99.90;;;;;;5023282;28;20096;-74
2023/11/01 03:18:04;;;;;;;5.45;1.65;;;11.20;99.90;;;;;;5049963;28;20390;-76
2023/11/01 03:20:30;;;;;;;12.43;2.60;;;11.20;99.90;;;;;;5028406;28;20025;-77
2023/11/01 03:22:55;;;;;;;8.27;2.30;;;11.20;99.90;;;;;;5014194;28;20551;-74
2023/11/01 03:25:21;;;;;;;6.20;2.15;;;11.20;99.90;;;;;;5048970;28;20021;-76
2023/11/01 03:27:47;;;;;;;5.95;1.80;;;11.20;99.90;;;;;;5045971;28;20022;-75
2023/11/01 03:30:12;;;;;;;8.25;2.50;;;11.20;99.90;;;;;;5028693;28;20521;-77
2023/11/01 03:32:38;;;;;;;6.53;2.30;;;11.20;99.90;;;;;;5052105;28;20457;-75
2023/11/01 03:35:04;;;;;;;9.40;2.88;;;11.20;99.90;;;;;;5016112;28;20044;-75
2023/11/01 03:37:29;;;;;;;7.00;3.03;;;11.30;99.90;;;;;;5010541;28;20033;-74
2023/11/01 03:39:55;;;;;;;10.52;2.40;;;11.20;99.90;;;;;;5020665;28;20062;-75
2023/11/01 03:42:21;;;;;;;8.35;2.78;;;11.30;99.90;;;;;;5030790;28;20043;-75
2023/11/01 03:44:49;;;;;;;9.18;2.85;;;11.30;99.90;;;;;;5031372;28;20067;-76
2023/11/01 03:47:15;;;;;;;11.35;3.22;;;11.30;99.90;;;;;;5039749;28;20454;-75
2023/11/01 03:49:40;;;;;;;8.82;2.40;;;11.30;99.90;;;;;;5011207;28;20034;-76
2023/11/01 03:52:06;;;;;;;13.65;3.03;;;11.30;99.90;;;;;;5011807;28;20045;-75
2023/11/01 03:54:34;;;;;;;7.25;2.60;;;11.30;99.90;;;;;;5010315;28;20038;-75
2023/11/01 03:57:02;;;;;;;7.05;2.60;;;11.30;99.90;;;;;;5029443;28;20033;-75
2023/11/01 03:59:27;;;;;;;9.32;3.65;;;11.30;99.90;;;;;;5010144;28;20029;-76
2023/11/01 04:01:53;;;;;;;7.75;2.78;;;11.30;99.90;;;;;;5017421;28;20387;-76
2023/11/01 04:04:18;;;;;;;10.82;2.83;;;11.30;99.90;;;;;;5029685;28;20037;-74
2023/11/01 04:06:44;;;;;;;7.03;2.90;;;11.40;99.90;;;;;;5031117;28;20028;-75
2023/11/01 04:09:10;;;;;;;4.78;2.47;;;11.40;99.90;;;;;;5048863;28;20033;-74
2023/11/01 04:11:36;;;;;;;7.30;2.45;;;11.40;99.90;;;;;;5047489;28;20044;-75
2023/11/01 04:14:02;;;;;;;9.82;2.13;;;11.40;99.90;;;;;;5048510;28;20033;-74
2023/11/01 04:16:29;;;;;;;7.43;2.38;;;11.40;99.90;;;;;;5026712;28;20030;-75
2023/11/01 04:18:56;;;;;;;10.43;2.97;;;11.40;99.90;;;;;;5030419;28;20608;-77
2023/11/01 04:21:22;;;;;;;9.10;2.10;;;11.40;99.90;;;;;;5043313;28;20084;-77
2023/11/01 04:23:48;;;;;;;4.57;2.00;;;11.30;99.90;;;;;;5049337;28;20044;-74
2023/11/01 04:26:14;;;;;;;4.97;2.50;;;11.40;99.90;;;;;;5030283;28;20029;-75
2023/11/01 04:28:40;;;;;;;6.38;1.65;;;11.40;99.90;;;;;;5048175;28;20395;-75
2023/11/01 04:31:06;;;;;;;7.80;1.88;;;11.40;99.90;;;;;;5026841;28;20100;-76
2023/11/01 04:33:31;;;;;;;4.28;2.08;;;11.40;99.90;;;;;;5047430;28;20471;-75
2023/11/01 04:35:57;;;;;;;7.28;2.00;;;11.40;99.90;;;;;;5026757;28;20033;-74
2023/11/01 04:38:23;;;;;;;7.35;1.92;;;11.40;99.90;;;;;;5029636;28;20025;-75
2023/11/01 04:40:51;;;;;;;8.02;1.70;;;11.40;99.90;;;;;;5030944;28;20486;-75
2023/11/01 04:43:20;;;;;;;5.18;1.92;;;11.40;99.90;;;;;;5011999;28;20550;-74
2023/11/01 04:45:46;;;;;;;2.38;1.33;;;11.40;99.90;;;;;;5015705;28;20036;-76
2023/11/01 04:48:12;;;;;;;5.22;1.70;;;11.40;99.90;;;;;;5030183;28;20025;-75
2023/11/01 04:50:37;;;;;;;4.25;1.60;;;11.40;99.90;;;;;;5029368;28;20430;-75
2023/11/01 04:53:03;;;;;;;2.53;1.67;;;11.40;99.90;;;;;;5044202;28;20088;-75
2023/11/01 04:55:29;;;;;;;8.38;2.55;;;11.40;99.90;;;;;;5046848;28;20474;-74
2023/11/01 04:57:55;;;;;;;4.40;2.25;;;11.50;99.90;;;;;;5030303;28;20100;-76
2023/11/01 05:00:20;;;;;;;5.15;2.50;;;11.50;99.90;;;;;;5029505;28;20550;-75
2023/11/01 05:02:46;;;;;;;5.45;2.75;;;11.50;99.90;;;;;;5030462;28;20017;-74
2023/11/01 05:05:12;;;;;;;7.10;2.50;;;11.50;99.90;;;;;;5048042;28;20017;-76
2023/11/01 05:07:38;;;;;;;5.05;2.80;;;11.50;99.90;;;;;;5031372;28;20454;-75
2023/11/01 05:10:04;;;;;;;8.07;2.90;;;11.50;99.90;;;;;;5016355;28;20026;-75
2023/11/01 05:12:30;;;;;;;6.07;3.15;;;11.50;99.90;;;;;;5041119;28;20037;-74
2023/11/01 05:14:56;;;;;;;6.47;3.00;;;11.60;99.90;;;;;;5028144;28;20127;-75
2023/11/01 05:17:22;;;;;;;7.88;3.42;;;11.50;99.90;;;;;;5009786;28;20116;-74
2023/11/01 05:19:47;;;;;;;7.65;3.50;;;11.60;99.90;;;;;;5021498;28;20029;-75
2023/11/01 05:22:13;;;;;;;7.15;3.63;;;11.60;99.90;;;;;;5020111;28;20037;-75
2023/11/01 05:24:38;;;;;;;7.68;3.58;;;11.60;99.90;;;;;;5018303;28;20029;-74
2023/11/01 05:27:06;;;;;;;6.95;4.10;;;11.60;99.90;;;;;;5047915;28;20042;-74
2023/11/01 05:29:33;;;;;;;7.30;4.18;;;11.60;99.90;;;;;;5029184;28;20022;-76
2023/11/01 05:31:58;;;;;;;9.88;3.88;;;11.60;99.90;;;;;;5053311;28;20478;-75
2023/11/01 05:34:24;;;;;;;9.55;4.72;;;11.70;99.90;;;;;;5046240;28;20076;-75
2023/11/01 05:36:50;;;;;;;10.15;4.45;;;11.70;99.90;;;;;;5022308;28;20064;-74
2023/11/01 05:39:16;;;;;;;9.00;4.63;;;11.70;99.90;;;;;;5009780;28;20026;-74
2023/11/01 05:41:45;;;;;;;12.13;4.95;;;11.70;99.90;;;;;;5030247;28;20860;-74
2023/11/01 05:44:11;;;;;;;8.02;4.70;;;11.70;99.90;;;;;;5047454;28;20059;-73
2023/11/01 05:46:36;;;;;;;15.48;5.20;;;11.80;99.90;;;;;;5028737;28;20498;-75
2023/11/01 05:49:04;;;;;;;14.10;5.28;;;11.80;99.90;;;;;;5013517;28;20040;-75
2023/11/01 05:51:29;;;;;;;15.82;5.85;;;11.80;99.90;;;;;;5009500;28;20060;-75
2023/11/01 05:53:55;;;;;;;12.27;5.32;;;11.80;99.90;;;;;;5021976;28;20139;-75
2023/11/01 05:56:23;;;;;;;14.00;5.97;;;11.90;99.90;;;;;;5041780;28;20524;-74
2023/11/01 05:58:48;;;;;;;11.13;5.75;;;11.90;99.90;;;;;;5026289;28;20483;-76
2023/11/01 06:01:14;;;;;;;16.00;5.68;;;11.90;99.90;;;;;;5030702;28;20044;-73
2023/11/01 06:03:40;;;;;;;11.63;4.88;;;11.90;99.90;;;;;;5031691;28;20037;-74
2023/11/01 06:06:06;;;;;;;14.18;4.45;;;11.90;99.90;;;;;;5049466;28;20545;-74
2023/11/01 06:08:31;;;;;;;18.95;4.88;;;12.00;99.90;;;;;;5048750;28;20041;-76
2023/11/01 06:10:57;;;;;;;15.15;4.25;;;12.00;99.90;;;;;;5032407;28;20037;-75
2023/11/01 06:13:23;;;;;;;18.25;4.63;;;12.00;99.90;;;;;;5048429;28;20037;-75
2023/11/01 06:15:49;;;;;;;17.52;4.28;;;12.00;99.90;;;;;;5049397;28;20033;-76
2023/11/01 06:18:15;;;;;;;18.10;3.80;;;12.00;99.90;;;;;;5036825;28;20108;-75
2023/11/01 06:20:41;;;;;;;13.77;4.13;;;12.00;99.90;;;;;;5049325;28;20100;-75
2023/11/01 06:23:08;;;;;;;8.45;3.53;;;12.00;99.90;;;;;;5039474;28;20059;-74
2023/11/01 06:25:33;;;;;;;13.27;4.32;;;12.00;99.90;;;;;;5037619;28;20054;-76
2023/11/01 06:27:59;;;;;;;12.15;4.32;;;12.00;99.90;;;;;;5049510;28;20017;-75
2023/11/01 06:30:25;;;;;;;17.88;3.85;;;12.10;99.90;;;;;;5027727;28;20037;-74
2023/11/01 06:32:51;;;;;;;11.80;3.35;;;12.00;99.90;;;;;;5035513;28;20486;-76
2023/11/01 06:35:17;;;;;;;23.45;5.38;;;12.00;99.90;;;;;;5038006;28;20063;-74
2023/11/01 06:37:42;;;;;;;16.95;3.45;;;12.10;99.90;;;;;;5048979;28;20094;-75
2023/11/01 06:40:09;;;;;;;13.98;3.22;;;12.10;99.90;;;;;;5037362;28;20032;-74
2023/11/01 06:42:35;;;;;;;14.13;3.03;;;12.10;99.90;;;;;;5037327;28;20063;-76
2023/11/01 06:45:01;;;;;;;13.57;2.85;;;12.10;99.90;;;;;;5036862;28;20056;-74
2023/11/01 06:47:26;;;;;;;21.45;2.75;;;12.10;99.90;;;;;;5048131;28;20033;-75
2023/11/01 06:49:52;;;;;;;14.73;3.45;;;12.10;99.90;;;;;;5049711;28;20536;-73
2023/11/01 06:52:17;;;;;;;14.77;2.72;;;12.20;99.90;;;;;;5049423;28;20402;-77
2023/11/01 06:54:43;;;;;;;13.05;2.88;;;12.10;99.90;;;;;;5048444;28;20478;-76
2023/11/01 06:57:11;;;;;;;9.07;2.50;;;12.20;99.90;;;;;;5049142;28;20040;-75
2023/11/01 06:59:40;;;;;;;15.05;2.95;;;12.10;99.90;;;;;;5048209;28;20033;-74
2023/11/01 07:02:06;;;;;;;13.65;2.97;;;12.10;99.90;;;;;;5048931;28;20037;-73
2023/11/01 07:04:32;;;;;;;11.63;2.92;;;12.10;99.90;;;;;;5038773;28;20738;-77
2023/11/01 07:06:58;;;;;;;14.88;2.38;;;12.10;99.90;;;;;;5048768;28;20037;-76
2023/11/01 07:09:24;;;;;;;14.70;2.85;;;12.10;99.90;;;;;;5037181;28;20032;-76
2023/11/01 07:11:49;;;;;;;13.88;2.47;;;12.10;99.90;;;;;;5049009;28;20036;-74
2023/11/01 07:14:16;;;;;;;10.27;2.50;;;12.20;99.90;;;;;;5037730;28;20040;-73
2023/11/01 07:16:42;;;;;;;12.35;2.25;;;12.20;99.90;;;;;;5037134;28;20032;-75
2023/11/01 07:19:08;;;;;;;10.18;2.38;;;12.20;99.90;;;;;;5039137;28;20029;-75
2023/11/01 07:21:33;;;;;;;9.00;2.70;;;12.20;99.90;;;;;;5047550;28;20155;-74
2023/11/01 07:23:59;;;;;;;12.02;3.60;;;12.20;99.90;;;;;;5048468;28;20533;-73
2023/11/01 07:26:25;;;;;;;15.85;2.67;;;12.20;99.90;;;;;;5036732;28;20486;-75
2023/11/01 07:28:51;;;;;;;14.82;1.90;;;12.20;99.90;;;;;;5048732;28;20041;-75
2023/11/01 07:31:17;;;;;;;10.02;2.38;;;12.20;99.90;;;;;;5038178;28;20033;-75
2023/11/01 07:33:43;;;;;;;8.95;1.70;;;12.20;99.90;;;;;;5048291;28;20048;-75
2023/11/01 07:36:10;;;;;;;6.20;1.70;;;12.20;99.90;;;;;;5049462;28;20041;-73
2023/11/01 07:38:35;;;;;;;9.48;2.55;;;12.30;99.90;;;;;;5036651;28;20044;-72
2023/11/01 07:41:01;;;;;;;14.90;2.28;;;12.30;99.90;;;;;;5039578;28;20029;-74
2023/11/01 07:43:27;;;;;;;10.27;1.60;;;12.30;99.90;;;;;;5046891;28;20138;-75
2023/11/01 07:45:55;;;;;;;6.47;1.23;;;12.30;99.90;;;;;;5035442;28;20056;-74
2023/11/01 07:48:21;;;;;;;9.32;1.88;;;12.30;99.90;;;;;;5036102;28;20590;-73
2023/11/01 07:50:47;;;;;;;14.30;2.10;;;12.30;99.90;;;;;;5040375;28;20418;-72
2023/11/01 07:53:12;;;;;;;6.38;1.10;;;12.40;99.90;;;;;;5037489;28;20025;-75
2023/11/01 07:55:38;;;;;;;16.85;1.90;;;12.30;99.90;;;;;;5047173;28;20037;-73
2023/11/01 07:58:04;;;;;;;7.43;2.08;;;12.30;99.90;;;;;;5048023;28;20032;-74
2023/11/01 08:00:30;;;;;;;8.43;1.15;;;12.40;99.90;;;;;;5046528;28;20025;-73
2023/11/01 08:02:55;;;;;;;7.88;1.60;;;12.40;99.90;;;;;;5037515;28;20032;-75
2023/11/01 08:05:22;;;;;;;7.55;1.20;;;12.40;99.90;;;;;;5046988;28;20086;-73
2023/11/01 08:07:48;;;;;;;7.40;1.58;;;12.40;99.90;;;;;;5037023;28;20028;-75
2023/11/01 08:10:13;;;;;;;11.68;1.63;;;12.40;99.90;;;;;;5037836;28;20075;-74
2023/11/01 08:12:39;;;;;;;7.85;1.15;;;12.50;99.90;;;;;;5047510;28;20071;-75
2023/11/01 08:15:05;;;;;;;8.18;1.73;;;12.50;99.90;;;;;;5047807;28;20075;-74
2023/11/01 08:17:31;;;;;;;13.40;1.30;;;12.50;99.90;;;;;;5034660;28;20033;-75
2023/11/01 08:19:57;;;;;;;8.15;1.77;;;12.50;99.90;;;;;;5042755;28;20033;-74
2023/11/01 08:22:23;;;;;;;13.98;1.33;;;12.50;99.90;;;;;;5040442;28;20066;-75
2023/11/01 08:24:49;;;;;;;10.77;2.38;;;12.50;99.90;;;;;;5047770;28;20179;-74
2023/11/01 08:27:15;;;;;;;6.82;1.00;;;12.50;99.90;;;;;;5046979;28;20140;-75
2023/11/01 08:29:43;;;;;;;7.60;1.40;;;12.50;99.90;;;;;;5044005;28;20398;-73
2023/11/01 08:32:10;;;;;;;11.52;1.50;;;12.50;99.90;;;;;;5035626;28;20036;-74
2023/11/01 08:34:36;;;;;;;13.73;1.67;;;12.60;99.90;;;;;;5030218;28;20634;-75
2023/11/01 08:37:02;;;;;;;6.15;1.75;;;12.60;99.90;;;;;;5038869;28;20029;-75
2023/11/01 08:39:28;;;;;;;8.25;1.92;;;12.60;99.90;;;;;;5041306;28;20033;-74
2023/11/01 08:41:53;;;;;;;7.40;1.20;;;12.60;99.90;;;;;;5033245;28;20120;-75
2023/11/01 08:44:19;;;;;;;13.32;1.75;;;12.60;99.90;;;;;;5045752;28;20033;-76
2023/11/01 08:46:45;;;;;;;15.10;2.35;;;12.60;99.90;;;;;;5034707;28;20043;-74
2023/11/01 08:49:13;;;;;;;8.57;1.55;;;12.60;99.90;;;;;;5039946;28;20036;-75
2023/11/01 08:51:39;;;;;;;7.07;1.40;;;12.70;99.90;;;;;;5046465;28;20048;-75
2023/11/01 08:54:05;;;;;;;8.70;1.35;;;12.70;99.90;;;;;;5046723;28;20033;-74
2023/11/01 08:56:31;;;;;;;4.72;1.13;;;12.70;99.90;;;;;;5037344;28;20037;-74
2023/11/01 08:58:57;;;;;;;7.18;1.10;;;12.70;99.90;;;;;;5036518;28;20379;-73
2023/11/01 09:01:24;;;;;;;9.68;1.13;;;12.70;99.90;;;;;;5045784;28;20017;-74
2023/11/01 09:03:50;;;;;;;6.57;1.13;;;12.80;99.90;;;;;;5034272;28;20122;-74
2023/11/01 09:06:15;;;;;;;9.50;1.83;;;12.80;99.90;;;;;;5032099;28;20482;-74
2023/11/01 09:08:41;;;;;;;9.43;1.35;;;12.80;99.90;;;;;;5037123;28;20678;-75
2023/11/01 09:11:06;;;;;;;7.90;2.03;;;12.90;99.90;;;;;;5047090;28;20036;-74
2023/11/01 09:13:32;;;;;;;12.68;2.13;;;12.90;99.90;;;;;;5036642;28;20072;-75
2023/11/01 09:15:57;;;;;;;7.10;1.63;;;12.90;99.90;;;;;;5036565;28;20040;-75
2023/11/01 09:18:23;;;;;;;10.10;1.05;;;12.90;99.90;;;;;;5046238;28;20080;-76
2023/11/01 09:20:49;;;;;;;10.15;1.50;;;13.00;99.90;;;;;;5040199;28;20033;-75
2023/11/01 09:23:14;;;;;;;9.02;1.30;;;13.00;99.90;;;;;;5034649;28;20025;-76
2023/11/01 09:25:40;;;;;;;3.05;1.05;;;12.90;99.90;;;;;;5032938;28;20033;-74
2023/11/01 09:28:05;;;;;;;8.80;1.75;;;13.00;99.90;;;;;;5047512;28;20100;-75
2023/11/01 09:30:31;;;;;;;9.38;1.30;;;13.00;99.90;;;;;;5025701;28;20025;-75
2023/11/01 09:32:57;;;;;;;8.50;0.85;;;13.00;99.90;;;;;;5036143;28;20156;-75
2023/11/01 09:35:22;;;;;;;13.02;1.63;;;13.00;99.90;;;;;;5039519;28;20041;-74
2023/11/01 09:37:48;;;;;;;9.65;1.33;;;13.10;99.90;;;;;;5036615;28;20033;-73
2023/11/01 09:40:14;;;;;;;8.38;2.20;;;13.10;99.90;;;;;;5038751;28;20041;-74
2023/11/01 09:42:40;;;;;;;5.63;0.82;;;13.10;99.90;;;;;;5049444;28;20056;-74
2023/11/01 09:45:10;;;;;;;7.10;1.20;;;13.20;99.90;;;;;;5039421;28;20041;-75
2023/11/01 09:47:40;;;;;;;6.82;1.45;;;13.20;99.90;;;;;;5030171;28;20104;-74
2023/11/01 09:50:07;;;;;;;8.45;1.63;;;13.30;99.90;;;;;;5029954;28;20123;-74
2023/11/01 09:52:33;;;;;;;8.70;1.85;;;13.30;99.90;;;;;;5032210;28;20045;-75
2023/11/01 09:55:00;;;;;;;7.75;1.67;;;13.30;99.90;;;;;;5048494;28;20155;-76
2023/11/01 09:57:29;;;;;;;6.47;0.60;;;13.30;99.90;;;;;;5038452;28;20041;-74
2023/11/01 09:59:55;;;;;;;8.18;1.35;;;13.30;99.90;;;;;;5035120;28;20120;-74
2023/11/01 10:02:22;;;;;;;7.28;0.80;;;13.30;99.90;;;;;;5039191;28;20132;-73
2023/11/01 10:04:48;;;;;;;5.30;0.95;;;13.40;99.90;;;;;;5033426;28;20032;-75
2023/11/01 10:07:13;;;;;;;7.68;0.80;;;13.40;99.90;;;;;;5033501;28;20502;-76
2023/11/01 10:09:39;;;;;;;10.98;2.10;;;13.30;99.90;;;;;;5041257;28;20124;-75
2023/11/01 10:12:08;;;;;;;7.75;1.00;;;13.30;99.90;;;;;;5032890;28;20028;-74
2023/11/01 10:14:34;;;;;;;12.10;1.58;;;13.30;99.90;;;;;;5043077;28;20094;-74
2023/11/01 10:17:00;;;;;;;5.55;1.00;;;13.40;99.90;;;;;;5039036;28;20065;-73
2023/11/01 10:19:27;;;;;;;2.60;0.50;;;13.40;99.90;;;;;;5037290;28;20056;-74
2023/11/01 10:21:53;;;;;;;4.72;0.75;;;13.40;99.90;;;;;;5036703;28;20094;-76
2023/11/01 10:24:20;;;;;;;8.07;0.55;;;13.40;99.90;;;;;;5041848;28;20072;-75
2023/11/01 10:26:46;;;;;;;7.88;1.15;;;13.40;99.90;;;;;;5049946;28;20040;-77
2023/11/01 10:29:12;;;;;;;5.18;0.52;;;13.40;99.90;;;;;;5037673;28;20037;-75
2023/11/01 10:31:37;;;;;;;9.85;1.08;;;13.40;99.90;;;;;;5036469;28;20048;-77
2023/11/01 10:34:13;;;;;;;9.23;1.35;;;13.50;99.90;;;;;;5039237;28;20060;-74
2023/11/01 10:36:52;;;;;;;7.70;0.65;;;13.50;99.90;;;;;;5040198;28;20075;-74
2023/11/01 10:39:19;;;;;;;4.00;0.77;;;13.50;99.90;;;;;;5037026;28;20036;-75
2023/11/01 10:41:50;;;;;;;8.25;1.33;;;13.50;99.90;;;;;;5053681;28;20520;-73
2023/11/01 10:44:16;;;;;;;5.55;0.60;;;13.60;99.90;;;;;;5055850;28;20437;-74
2023/11/01 10:46:42;;;;;;;4.93;0.77;;;13.60;99.90;;;;;;5059521;28;20032;-75
2023/11/01 10:49:14;;;;;;;8.60;1.30;;;13.60;99.90;;;;;;5039879;28;20074;-75
2023/11/01 10:51:40;;;;;;;8.77;1.40;;;13.60;99.90;;;;;;5031352;28;20024;-74
2023/11/01 10:54:08;;;;;;;4.88;0.95;;;13.70;99.90;;;;;;5037745;28;20035;-74
2023/11/01 10:56:34;;;;;;;4.25;0.73;;;13.70;99.90;;;;;;5031534;28;20985;-74
2023/11/01 10:59:34;;;;;;;11.00;2.05;;;13.70;99.90;;;;;;5043671;28;20029;-74
2023/11/01 11:02:18;;;;;;;;;;;13.70;99.90;;;;;;5024270;28;20055;-73
2023/11/01 11:04:51;;;;;;;4.45;1.02;;;13.60;99.90;;;;;;5036023;28;19928;-72
2023/11/01 11:07:21;;;;;;;9.40;1.42;;;13.60;99.90;;;;;;5039498;28;20816;-75
2023/11/01 11:09:47;;;;;;;8.60;0.65;;;13.50;99.90;;;;;;5037641;28;20029;-72
2023/11/01 11:12:21;;;;;;;8.45;0.60;;;13.60;99.90;;;;;;5036496;28;20090;-74
2023/11/01 11:14:51;;;;;;;3.30;0.63;;;13.60;99.90;;;;;;5033245;28;20052;-73
2023/11/01 11:17:18;;;;;;;4.28;0.60;;;13.60;99.90;;;;;;5038368;28;20079;-73
2023/11/01 11:20:11;;;;;;;8.85;1.02;;;13.50;99.90;;;;;;5039393;28;20108;-74
2023/11/01 11:23:02;;;;;;;5.63;1.20;;;13.60;99.90;;;;;;5026286;28;20174;-77
2023/11/01 11:25:36;;;;;;;;;;;13.60;99.90;;;;;;5043263;28;20029;-74
2023/11/01 11:28:02;;;;;;;7.68;0.90;;;13.60;99.90;;;;;;5036362;28;19913;-74
2023/11/01 11:30:57;;;;;;;8.38;1.42;;;13.60;99.90;;;;;;5044163;28;20061;-74
2023/11/01 11:33:23;;;;;;;3.72;0.50;;;13.60;99.90;;;;;;5040113;28;20035;-73
2023/11/01 11:36:07;;;;;;;4.30;0.77;;;13.70;99.90;;;;;;5032045;28;20025;-75
2023/11/01 11:38:34;;;;;;;6.72;1.10;;;13.70;99.90;;;;;;5032955;28;20029;-75
2023/11/01 11:41:26;;;;;;;5.88;0.80;;;13.70;99.90;;;;;;5044393;28;20079;-75
2023/11/01 11:44:13;;;;;;;3.78;0.47;;;13.70;99.90;;;;;;5024027;28;20033;-74
2023/11/01 11:46:45;;;;;;;5.65;0.80;;;13.80;99.90;;;;;;5029676;28;20037;-74
2023/11/01 11:51:53;;;;;;;9.98;1.13;;;13.80;99.90;;;;;;5043406;28;20463;-76
2023/11/01 11:54:19;;;;;;;;;;;13.80;99.90;;;;;;5036838;28;20037;-74
2023/11/01 11:56:46;;;;;;;1.92;0.68;;;13.90;99.90;;;;;;5036022;28;19963;-73
2023/11/01 11:59:19;;;;;;;3.17;0.70;;;13.90;99.90;;;;;;5032098;28;20040;-76
2023/11/01 12:01:46;;;;;;;2.90;0.40;;;14.00;99.90;;;;;;5029183;28;20621;-74
2023/11/01 12:04:11;;;;;;;4.43;0.52;;;14.10;99.90;;;;;;5045184;28;20112;-74
2023/11/01 12:06:41;;;;;;;5.95;0.77;;;14.10;99.90;;;;;;5044578;28;20116;-75
2023/11/01 12:09:21;;;;;;;3.58;0.70;;;14.10;99.90;;;;;;5029295;28;20033;-76
2023/11/01 12:11:48;;;;;;;2.22;0.38;;;14.20;99.90;;;;;;5032056;28;20124;-75
2023/11/01 12:14:21;;;;;;;4.32;0.60;;;14.10;99.90;;;;;;5032118;28;20048;-74
2023/11/01 12:16:48;;;;;;;6.15;0.90;;;14.20;99.90;;;;;;5029729;28;20043;-77
2023/11/01 12:19:18;;;;;;;6.38;0.35;;;14.20;99.90;;;;;;5033570;28;20600;-74
2023/11/01 12:21:48;;;;;;;7.00;0.43;;;14.20;99.90;;;;;;5029549;28;20121;-76
2023/11/01 12:24:14;;;;;;;3.60;0.30;;;14.20;99.90;;;;;;5031911;28;20931;-76
2023/11/01 12:27:06;;;;;;;5.47;1.08;;;14.30;99.90;;;;;;5036143;28;20040;-76
2023/11/01 12:29:51;;;;;;;4.40;0.73;;;14.40;99.90;;;;;;5031669;28;20030;-75
2023/11/01 12:32:33;;;;;;;2.05;0.55;;;14.30;99.90;;;;;;5033485;28;20085;-74
2023/11/01 12:35:06;;;;;;;7.40;0.77;;;14.30;99.90;;;;;;5035032;28;20033;-76
2023/11/01 12:37:34;;;;;;;5.43;0.93;;;14.30;99.90;;;;;;5042521;28;20033;-76
2023/11/01 12:40:12;;;;;;;5.35;0.98;;;14.30;99.90;;;;;;5031017;28;20387;-73
2023/11/01 12:42:41;;;;;;;3.45;0.50;;;14.30;99.90;;;;;;5044561;28;20079;-75
2023/11/01 12:45:07;;;;;;;2.85;0.80;;;14.30;99.90;;;;;;5031913;28;20127;-74